createdAt,value
2017-12-21T00:01:40.480Z,1006.13
2017-12-21T00:02:41.208Z,1006.08
2017-12-21T00:04:33.680Z,1006.07
2017-12-21T00:05:34.022Z,1006.13
2017-12-21T00:07:27.701Z,1006.17
2017-12-21T00:08:26.691Z,1006.20
2017-12-21T00:10:19.586Z,1006.17
2017-12-21T00:11:20.437Z,1006.19
2017-12-21T00:13:13.220Z,1006.20
2017-12-21T00:14:12.597Z,1006.23
2017-12-21T00:16:06.209Z,1006.16
2017-12-21T00:17:06.113Z,1006.14
2017-12-21T00:19:00.348Z,1006.14
2017-12-21T00:19:59.811Z,1006.17
2017-12-21T00:21:53.625Z,1006.20
2017-12-21T00:22:52.178Z,1006.21
2017-12-21T00:24:51.649Z,1006.18
2017-12-21T00:25:51.728Z,1006.14
2017-12-21T00:27:45.679Z,1006.10
2017-12-21T00:28:46.268Z,1006.04
2017-12-21T00:30:42.712Z,1005.96
2017-12-21T00:31:40.905Z,1005.97
2017-12-21T00:33:34.950Z,1005.91
2017-12-21T00:34:34.850Z,1005.86
2017-12-21T00:36:27.414Z,1005.84
2017-12-21T00:37:26.933Z,1005.86
2017-12-21T00:39:19.757Z,1005.83
2017-12-21T00:40:20.973Z,1005.83
2017-12-21T00:42:11.904Z,1005.90
2017-12-21T00:43:12.470Z,1005.97
2017-12-21T00:45:05.888Z,1005.96
2017-12-21T00:46:06.870Z,1005.91
2017-12-21T00:47:59.290Z,1005.92
2017-12-21T00:49:00.256Z,1005.95
2017-12-21T00:50:53.935Z,1005.90
2017-12-21T00:51:53.899Z,1005.91
2017-12-21T00:53:46.174Z,1005.87
2017-12-21T00:54:48.256Z,1005.86
2017-12-21T00:56:40.046Z,1005.88
2017-12-21T00:57:39.770Z,1005.85
2017-12-21T00:59:33.076Z,1005.83
2017-12-21T01:00:32.469Z,1005.83
2017-12-21T01:02:25.818Z,1005.84
2017-12-21T01:03:25.311Z,1005.79
2017-12-21T01:05:17.020Z,1005.84
2017-12-21T01:06:17.568Z,1005.81
2017-12-21T01:08:11.723Z,1005.96
2017-12-21T01:09:11.980Z,1006.00
2017-12-21T01:11:06.731Z,1006.05
2017-12-21T01:12:05.064Z,1006.00
2017-12-21T01:13:57.986Z,1005.99
2017-12-21T01:14:57.904Z,1006.00
2017-12-21T01:16:51.034Z,1005.96
2017-12-21T01:17:51.607Z,1005.93
2017-12-21T01:19:45.003Z,1005.91
2017-12-21T01:20:43.137Z,1005.87
2017-12-21T01:22:37.780Z,1005.74
2017-12-21T01:23:36.983Z,1005.68
2017-12-21T01:25:34.929Z,1005.66
2017-12-21T01:26:30.208Z,1005.61
2017-12-21T01:28:24.916Z,1005.59
2017-12-21T01:29:24.452Z,1005.56
2017-12-21T01:31:18.133Z,1005.50
2017-12-21T01:33:58.208Z,1005.46
2017-12-21T01:36:15.597Z,1005.52
2017-12-21T01:37:28.731Z,1005.55
2017-12-21T01:39:09.846Z,1005.52
2017-12-21T01:40:09.557Z,1005.50
2017-12-21T01:42:03.154Z,1005.51
2017-12-21T01:43:03.461Z,1005.50
2017-12-21T01:44:54.949Z,1005.42
2017-12-21T01:45:56.143Z,1005.40
2017-12-21T01:47:49.095Z,1005.35
2017-12-21T01:48:49.760Z,1005.37
2017-12-21T01:50:41.778Z,1005.39
2017-12-21T01:51:41.721Z,1005.33
2017-12-21T01:53:34.980Z,1005.24
2017-12-21T01:54:35.426Z,1005.21
2017-12-21T01:56:27.650Z,1005.17
2017-12-21T01:57:27.491Z,1005.18
2017-12-21T01:59:19.995Z,1005.23
2017-12-21T02:00:19.488Z,1005.24
2017-12-21T02:02:12.335Z,1005.25
2017-12-21T02:03:13.939Z,1005.18
2017-12-21T02:05:06.087Z,1005.16
2017-12-21T02:08:01.898Z,1005.14
2017-12-21T02:09:00.727Z,1005.10
2017-12-21T02:10:55.424Z,1005.07
2017-12-21T02:11:54.151Z,1005.07
2017-12-21T02:13:46.532Z,1004.95
2017-12-21T02:14:47.400Z,1005.01
2017-12-21T02:16:39.592Z,1004.97
2017-12-21T02:17:39.702Z,1004.93
2017-12-21T02:19:32.536Z,1004.86
2017-12-21T02:20:33.262Z,1004.97
2017-12-21T02:22:26.596Z,1004.92
2017-12-21T02:23:26.198Z,1004.92
2017-12-21T02:25:19.135Z,1005.02
2017-12-21T02:26:18.935Z,1005.01
2017-12-21T02:28:12.385Z,1005.01
2017-12-21T02:29:11.899Z,1005.02
2017-12-21T02:31:05.183Z,1005.12
2017-12-21T02:32:05.572Z,1005.14
2017-12-21T02:33:58.739Z,1005.16
2017-12-21T02:34:58.275Z,1005.23
2017-12-21T02:36:49.838Z,1005.29
2017-12-21T02:37:53.481Z,1005.30
2017-12-21T02:39:47.261Z,1005.34
2017-12-21T02:40:44.918Z,1005.35
2017-12-21T02:42:39.968Z,1005.24
2017-12-21T02:43:41.057Z,1005.32
2017-12-21T02:45:30.286Z,1005.32
2017-12-21T02:48:22.910Z,1005.28
2017-12-21T02:49:26.400Z,1005.35
2017-12-21T02:51:19.066Z,1005.36
2017-12-21T02:53:31.470Z,1005.41
2017-12-21T02:54:29.620Z,1005.35
2017-12-21T02:56:21.424Z,1005.43
2017-12-21T02:57:23.161Z,1005.45
2017-12-21T02:59:14.917Z,1005.37
2017-12-21T03:00:14.627Z,1005.40
2017-12-21T03:02:07.019Z,1005.39
2017-12-21T03:03:07.492Z,1005.43
2017-12-21T03:04:59.795Z,1005.51
2017-12-21T03:05:59.763Z,1005.45
2017-12-21T03:07:52.195Z,1005.47
2017-12-21T03:08:52.149Z,1005.52
2017-12-21T03:10:45.242Z,1005.46
2017-12-21T03:11:45.114Z,1005.44
2017-12-21T03:13:37.800Z,1005.40
2017-12-21T03:14:41.601Z,1005.42
2017-12-21T03:16:30.248Z,1005.38
2017-12-21T03:17:31.187Z,1005.48
2017-12-21T03:19:23.047Z,1005.54
2017-12-21T03:20:24.435Z,1005.49
2017-12-21T03:22:16.311Z,1005.45
2017-12-21T03:23:16.165Z,1005.41
2017-12-21T03:25:08.920Z,1005.47
2017-12-21T03:26:09.275Z,1005.50
2017-12-21T03:28:01.668Z,1005.45
2017-12-21T03:29:02.631Z,1005.44
2017-12-21T03:30:55.073Z,1005.49
2017-12-21T03:31:54.101Z,1005.52
2017-12-21T03:33:47.529Z,1005.59
2017-12-21T03:34:48.004Z,1005.52
2017-12-21T03:36:40.864Z,1005.51
2017-12-21T03:37:42.723Z,1005.48
2017-12-21T03:39:37.513Z,1005.48
2017-12-21T03:40:37.846Z,1005.41
2017-12-21T03:42:30.263Z,1005.43
2017-12-21T03:43:29.729Z,1005.42
2017-12-21T03:45:22.651Z,1005.41
2017-12-21T03:46:23.097Z,1005.43
2017-12-21T03:48:14.981Z,1005.43
2017-12-21T03:49:15.755Z,1005.45
2017-12-21T03:51:06.922Z,1005.43
2017-12-21T03:52:07.638Z,1005.39
2017-12-21T03:53:59.981Z,1005.38
2017-12-21T03:55:00.839Z,1005.44
2017-12-21T03:56:52.281Z,1005.44
2017-12-21T03:57:52.578Z,1005.41
2017-12-21T03:59:45.239Z,1005.42
2017-12-21T04:00:45.670Z,1005.41
2017-12-21T04:02:37.516Z,1005.40
2017-12-21T04:03:39.226Z,1005.38
2017-12-21T04:05:31.129Z,1005.37
2017-12-21T04:06:31.604Z,1005.40
2017-12-21T04:08:22.912Z,1005.31
2017-12-21T04:09:23.214Z,1005.37
2017-12-21T04:11:16.149Z,1005.29
2017-12-21T04:12:16.379Z,1005.29
2017-12-21T04:14:09.250Z,1005.32
2017-12-21T04:15:09.052Z,1005.33
2017-12-21T04:17:01.461Z,1005.25
2017-12-21T04:18:01.960Z,1005.25
2017-12-21T04:19:54.484Z,1005.26
2017-12-21T04:20:54.390Z,1005.26
2017-12-21T04:22:46.790Z,1005.19
2017-12-21T04:23:46.894Z,1005.19
2017-12-21T04:25:39.219Z,1005.15
2017-12-21T04:26:40.372Z,1005.14
2017-12-21T04:28:33.909Z,1005.10
2017-12-21T04:29:34.361Z,1005.03
2017-12-21T04:31:25.376Z,1005.07
2017-12-21T04:32:27.206Z,1005.07
2017-12-21T04:34:18.500Z,1005.11
2017-12-21T04:35:17.743Z,1005.06
2017-12-21T04:37:11.606Z,1005.08
2017-12-21T04:38:12.121Z,1005.02
2017-12-21T04:40:03.869Z,1005.06
2017-12-21T04:41:04.344Z,1005.02
2017-12-21T04:42:58.661Z,1004.98
2017-12-21T04:43:57.387Z,1004.99
2017-12-21T04:45:49.445Z,1004.98
2017-12-21T04:46:50.038Z,1004.95
2017-12-21T04:48:41.751Z,1004.95
2017-12-21T04:49:42.151Z,1004.89
2017-12-21T04:51:34.958Z,1004.92
2017-12-21T04:52:35.929Z,1004.96
2017-12-21T04:54:26.790Z,1004.92
2017-12-21T04:55:27.099Z,1004.91
2017-12-21T04:57:19.316Z,1004.88
2017-12-21T04:58:20.238Z,1004.90
2017-12-21T05:00:12.195Z,1004.86
2017-12-21T05:01:12.128Z,1004.90
2017-12-21T05:03:05.216Z,1004.84
2017-12-21T05:04:05.779Z,1004.84
2017-12-21T05:05:58.721Z,1004.83
2017-12-21T05:06:58.858Z,1004.81
2017-12-21T05:08:51.191Z,1004.88
2017-12-21T05:09:51.198Z,1004.84
2017-12-21T05:11:45.168Z,1004.88
2017-12-21T05:12:45.180Z,1004.85
2017-12-21T05:14:37.552Z,1004.88
2017-12-21T05:15:38.371Z,1004.85
2017-12-21T05:17:30.210Z,1004.87
2017-12-21T05:18:30.123Z,1004.86
2017-12-21T05:20:24.376Z,1004.87
2017-12-21T05:21:24.648Z,1004.88
2017-12-21T05:23:16.600Z,1004.88
2017-12-21T05:24:17.038Z,1004.90
2017-12-21T05:26:09.992Z,1004.98
2017-12-21T05:27:11.726Z,1004.96
2017-12-21T05:29:04.648Z,1004.97
2017-12-21T05:30:03.460Z,1004.94
2017-12-21T05:31:55.450Z,1004.93
2017-12-21T05:32:56.032Z,1004.92
2017-12-21T05:34:49.144Z,1004.93
2017-12-21T05:35:48.752Z,1004.95
2017-12-21T05:37:41.394Z,1004.91
2017-12-21T05:38:41.306Z,1004.91
2017-12-21T05:40:34.266Z,1004.89
2017-12-21T05:41:34.456Z,1004.89
2017-12-21T05:43:27.024Z,1004.90
2017-12-21T05:44:27.130Z,1004.89
2017-12-21T05:46:19.541Z,1004.92
2017-12-21T05:47:20.160Z,1004.93
2017-12-21T05:49:11.918Z,1004.91
2017-12-21T05:50:12.519Z,1004.92
2017-12-21T05:52:05.098Z,1004.90
2017-12-21T05:53:05.137Z,1004.92
2017-12-21T05:54:58.531Z,1004.87
2017-12-21T05:55:58.782Z,1004.98
2017-12-21T05:57:51.194Z,1004.96
2017-12-21T05:58:51.479Z,1004.93
2017-12-21T06:00:44.099Z,1004.92
2017-12-21T06:01:44.560Z,1004.96
2017-12-21T06:03:36.354Z,1004.93
2017-12-21T06:04:36.470Z,1005.00
2017-12-21T06:06:29.725Z,1004.95
2017-12-21T06:07:30.426Z,1004.96
2017-12-21T06:09:23.055Z,1004.96
2017-12-21T06:10:22.449Z,1005.00
2017-12-21T06:12:15.245Z,1004.97
2017-12-21T06:13:15.521Z,1005.01
2017-12-21T06:15:07.725Z,1004.91
2017-12-21T06:16:08.041Z,1004.95
2017-12-21T06:18:00.624Z,1004.94
2017-12-21T06:19:01.788Z,1004.94
2017-12-21T06:20:53.530Z,1005.01
2017-12-21T06:21:53.870Z,1005.01
2017-12-21T06:23:45.699Z,1004.96
2017-12-21T06:24:45.999Z,1005.03
2017-12-21T06:26:56.787Z,1004.99
2017-12-21T06:27:39.979Z,1004.98
2017-12-21T06:29:32.343Z,1004.98
2017-12-21T06:30:32.122Z,1005.01
2017-12-21T06:32:25.126Z,1005.02
2017-12-21T06:33:26.603Z,1004.96
2017-12-21T06:35:19.141Z,1005.05
2017-12-21T06:36:18.693Z,1005.03
2017-12-21T06:38:10.791Z,1004.99
2017-12-21T06:39:11.318Z,1004.97
2017-12-21T06:41:04.074Z,1004.95
2017-12-21T06:42:03.509Z,1004.89
2017-12-21T06:43:57.881Z,1004.88
2017-12-21T06:44:57.355Z,1004.91
2017-12-21T06:46:49.854Z,1004.83
2017-12-21T06:47:50.396Z,1004.88
2017-12-21T06:49:43.260Z,1004.80
2017-12-21T06:50:44.118Z,1004.81
2017-12-21T06:52:36.097Z,1004.77
2017-12-21T06:53:37.210Z,1004.80
2017-12-21T06:55:28.275Z,1004.85
2017-12-21T06:56:28.614Z,1004.82
2017-12-21T06:58:21.812Z,1004.82
2017-12-21T06:59:22.470Z,1004.83
2017-12-21T07:01:13.899Z,1004.84
2017-12-21T07:02:13.561Z,1004.77
2017-12-21T07:04:06.635Z,1004.81
2017-12-21T07:05:07.107Z,1004.82
2017-12-21T07:06:58.900Z,1004.78
2017-12-21T07:07:58.966Z,1004.78
2017-12-21T07:09:52.061Z,1004.87
2017-12-21T07:10:51.763Z,1004.86
2017-12-21T07:12:44.674Z,1004.90
2017-12-21T07:13:44.470Z,1004.91
2017-12-21T07:15:38.342Z,1004.90
2017-12-21T07:16:37.357Z,1004.86
2017-12-21T07:18:31.212Z,1004.85
2017-12-21T07:19:32.372Z,1004.89
2017-12-21T07:21:24.196Z,1004.94
2017-12-21T07:22:25.048Z,1004.88
2017-12-21T07:24:16.935Z,1004.87
2017-12-21T07:25:16.812Z,1004.92
2017-12-21T07:27:09.754Z,1004.96
2017-12-21T07:28:10.466Z,1004.96
2017-12-21T07:30:02.140Z,1005.03
2017-12-21T07:31:02.193Z,1005.01
2017-12-21T07:32:55.550Z,1005.00
2017-12-21T07:33:56.425Z,1004.97
2017-12-21T07:35:48.047Z,1005.00
2017-12-21T07:36:48.670Z,1005.01
2017-12-21T07:38:41.312Z,1004.97
2017-12-21T07:39:41.834Z,1005.01
2017-12-21T07:41:33.732Z,1005.03
2017-12-21T07:42:34.971Z,1005.09
2017-12-21T07:44:26.651Z,1005.08
2017-12-21T07:45:27.221Z,1005.09
2017-12-21T07:47:20.748Z,1005.12
2017-12-21T07:48:20.495Z,1005.11
2017-12-21T07:50:14.525Z,1005.13
2017-12-21T07:51:14.092Z,1005.07
2017-12-21T07:53:05.785Z,1005.10
2017-12-21T07:54:07.059Z,1005.10
2017-12-21T07:55:58.235Z,1005.12
2017-12-21T07:57:00.370Z,1005.14
2017-12-21T07:58:51.219Z,1005.09
2017-12-21T07:59:53.339Z,1005.18
2017-12-21T08:01:44.441Z,1005.15
2017-12-21T08:02:45.131Z,1005.19
2017-12-21T08:04:36.948Z,1005.18
2017-12-21T08:05:36.766Z,1005.17
2017-12-21T08:07:29.556Z,1005.18
2017-12-21T08:08:29.754Z,1005.19
2017-12-21T08:10:23.139Z,1005.18
2017-12-21T08:11:23.611Z,1005.20
2017-12-21T08:13:16.776Z,1005.17
2017-12-21T08:14:17.703Z,1005.23
2017-12-21T08:16:09.640Z,1005.20
2017-12-21T08:17:10.179Z,1005.19
2017-12-21T08:19:02.779Z,1005.16
2017-12-21T08:20:04.134Z,1005.19
2017-12-21T08:21:55.231Z,1005.18
2017-12-21T08:22:56.202Z,1005.20
2017-12-21T08:24:48.554Z,1005.20
2017-12-21T08:25:48.941Z,1005.20
2017-12-21T08:27:40.773Z,1005.22
2017-12-21T08:28:41.605Z,1005.19
2017-12-21T08:30:33.771Z,1005.23
2017-12-21T08:31:34.899Z,1005.23
2017-12-21T08:33:26.412Z,1005.25
2017-12-21T08:34:26.827Z,1005.20
2017-12-21T08:36:19.182Z,1005.22
2017-12-21T08:37:19.485Z,1005.24
2017-12-21T08:39:13.236Z,1005.26
2017-12-21T08:40:14.181Z,1005.26
2017-12-21T08:42:07.143Z,1005.27
2017-12-21T08:43:08.321Z,1005.21
2017-12-21T08:44:59.703Z,1005.21
2017-12-21T08:46:01.618Z,1005.22
2017-12-21T08:47:53.056Z,1005.26
2017-12-21T08:48:53.926Z,1005.26
2017-12-21T08:50:45.588Z,1005.23
2017-12-21T08:51:46.713Z,1005.24
2017-12-21T08:53:37.968Z,1005.24
2017-12-21T08:54:37.860Z,1005.28
2017-12-21T08:56:31.084Z,1005.23
2017-12-21T08:57:30.815Z,1005.23
2017-12-21T08:59:23.142Z,1005.25
2017-12-21T09:00:24.160Z,1005.26
2017-12-21T09:02:16.685Z,1005.28
2017-12-21T09:03:16.591Z,1005.32
2017-12-21T09:05:08.600Z,1005.32
2017-12-21T09:06:08.556Z,1005.29
2017-12-21T09:08:01.780Z,1005.28
2017-12-21T09:09:01.298Z,1005.30
2017-12-21T09:10:54.411Z,1005.33
2017-12-21T09:11:55.586Z,1005.30
2017-12-21T09:13:47.476Z,1005.30
2017-12-21T09:14:48.707Z,1005.33
2017-12-21T09:16:40.122Z,1005.30
2017-12-21T09:17:39.945Z,1005.31
2017-12-21T09:19:32.441Z,1005.34
2017-12-21T09:20:33.804Z,1005.35
2017-12-21T09:22:25.679Z,1005.35
2017-12-21T09:23:26.093Z,1005.40
2017-12-21T09:25:18.630Z,1005.34
2017-12-21T09:26:19.328Z,1005.39
2017-12-21T09:28:11.111Z,1005.38
2017-12-21T09:29:12.228Z,1005.37
2017-12-21T09:31:04.061Z,1005.37
2017-12-21T09:32:04.818Z,1005.38
2017-12-21T09:33:57.140Z,1005.42
2017-12-21T09:34:57.696Z,1005.39
2017-12-21T09:36:49.649Z,1005.42
2017-12-21T09:37:50.253Z,1005.41
2017-12-21T09:39:42.639Z,1005.45
2017-12-21T09:40:43.720Z,1005.41
2017-12-21T09:42:35.410Z,1005.47
2017-12-21T09:43:37.150Z,1005.47
2017-12-21T09:45:28.579Z,1005.49
2017-12-21T09:46:28.299Z,1005.49
2017-12-21T09:48:21.251Z,1005.48
2017-12-21T09:49:22.121Z,1005.47
2017-12-21T09:51:14.620Z,1005.47
2017-12-21T09:52:15.520Z,1005.47
2017-12-21T09:54:06.726Z,1005.50
2017-12-21T09:55:06.596Z,1005.49
2017-12-21T09:57:00.843Z,1005.45
2017-12-21T09:58:00.960Z,1005.45
2017-12-21T09:59:53.724Z,1005.43
2017-12-21T10:00:54.192Z,1005.41
2017-12-21T10:02:46.559Z,1005.34
2017-12-21T10:03:46.539Z,1005.38
2017-12-21T10:05:40.133Z,1005.37
2017-12-21T10:06:40.486Z,1005.30
2017-12-21T10:08:34.215Z,1005.36
2017-12-21T10:09:33.765Z,1005.36
2017-12-21T10:11:26.888Z,1005.30
2017-12-21T10:12:26.818Z,1005.34
2017-12-21T10:14:19.462Z,1005.31
2017-12-21T10:15:19.912Z,1005.32
2017-12-21T10:17:11.999Z,1005.35
2017-12-21T10:18:12.210Z,1005.33
2017-12-21T10:20:05.000Z,1005.27
2017-12-21T10:21:05.100Z,1005.28
2017-12-21T10:22:57.742Z,1005.27
2017-12-21T10:23:57.814Z,1005.25
2017-12-21T10:25:50.890Z,1005.22
2017-12-21T10:26:50.974Z,1005.15
2017-12-21T10:28:43.796Z,1005.15
2017-12-21T10:29:43.637Z,1005.11
2017-12-21T10:31:36.789Z,1005.04
2017-12-21T10:32:36.072Z,1005.07
2017-12-21T10:34:28.785Z,1004.99
2017-12-21T10:35:28.769Z,1005.04
2017-12-21T10:37:21.810Z,1005.03
2017-12-21T10:38:21.760Z,1005.07
2017-12-21T10:40:15.406Z,1004.97
2017-12-21T10:41:15.659Z,1004.98
2017-12-21T10:43:07.829Z,1004.97
2017-12-21T10:44:08.398Z,1004.94
2017-12-21T10:46:00.368Z,1004.92
2017-12-21T10:47:02.024Z,1004.92
2017-12-21T10:48:52.599Z,1004.91
2017-12-21T10:49:53.180Z,1004.89
2017-12-21T10:51:45.944Z,1004.87
2017-12-21T10:52:46.341Z,1004.84
2017-12-21T10:54:38.985Z,1004.87
2017-12-21T10:55:38.793Z,1004.88
2017-12-21T10:57:31.599Z,1004.82
2017-12-21T10:58:31.634Z,1004.80
2017-12-21T11:00:24.763Z,1004.85
2017-12-21T11:01:25.840Z,1004.84
2017-12-21T11:03:17.554Z,1004.91
2017-12-21T11:04:17.331Z,1004.88
2017-12-21T11:06:11.271Z,1004.95
2017-12-21T11:07:11.039Z,1005.03
2017-12-21T11:09:03.830Z,1005.05
2017-12-21T11:10:04.949Z,1005.08
2017-12-21T11:11:56.799Z,1005.05
2017-12-21T11:12:57.769Z,1005.03
2017-12-21T11:14:49.082Z,1005.04
2017-12-21T11:15:49.947Z,1005.05
2017-12-21T11:17:42.354Z,1004.97
2017-12-21T11:20:09.852Z,1005.06
2017-12-21T11:22:29.347Z,1005.08
2017-12-21T11:23:29.184Z,1005.05
2017-12-21T11:25:15.439Z,1005.08
2017-12-21T11:26:16.271Z,1005.10
2017-12-21T11:28:07.885Z,1005.10
2017-12-21T11:29:08.030Z,1005.02
2017-12-21T11:31:00.479Z,1005.03
2017-12-21T11:32:01.090Z,1005.01
2017-12-21T11:33:53.603Z,1004.99
2017-12-21T11:34:54.413Z,1004.99
2017-12-21T11:36:46.652Z,1004.99
2017-12-21T11:37:46.137Z,1004.98
2017-12-21T11:39:40.514Z,1004.96
2017-12-21T11:40:39.928Z,1004.93
2017-12-21T11:42:32.363Z,1004.93
2017-12-21T11:43:31.278Z,1004.91
2017-12-21T11:45:24.590Z,1004.82
2017-12-21T11:46:25.556Z,1004.84
2017-12-21T11:48:17.984Z,1004.84
2017-12-21T11:49:19.333Z,1004.80
2017-12-21T11:51:09.878Z,1004.81
2017-12-21T11:52:12.363Z,1004.78
2017-12-21T11:54:03.387Z,1004.83
2017-12-21T11:55:03.298Z,1004.79
2017-12-21T11:56:55.530Z,1004.77
2017-12-21T11:57:56.755Z,1004.79
2017-12-21T11:59:48.587Z,1004.82
2017-12-21T12:00:49.434Z,1004.80
2017-12-21T12:02:41.700Z,1004.78
2017-12-21T12:03:42.302Z,1004.75
2017-12-21T12:05:34.638Z,1004.83
2017-12-21T12:06:35.057Z,1004.78
2017-12-21T12:08:26.857Z,1004.79
2017-12-21T12:09:27.665Z,1004.76
2017-12-21T12:11:19.592Z,1004.79
2017-12-21T12:12:20.433Z,1004.77
2017-12-21T12:14:13.855Z,1004.79
2017-12-21T12:15:14.695Z,1004.78
2017-12-21T12:17:07.668Z,1004.82
2017-12-21T12:18:06.365Z,1004.81
2017-12-21T12:20:01.508Z,1004.78
2017-12-21T12:21:01.771Z,1004.84
2017-12-21T12:22:53.158Z,1004.82
2017-12-21T12:23:52.922Z,1004.84
2017-12-21T12:25:46.140Z,1004.81
2017-12-21T12:26:47.099Z,1004.83
2017-12-21T12:28:39.145Z,1004.84
2017-12-21T12:29:39.931Z,1004.87
2017-12-21T12:31:31.555Z,1004.88
2017-12-21T12:32:31.309Z,1004.87
2017-12-21T12:34:25.345Z,1004.85
2017-12-21T12:35:25.259Z,1004.88
2017-12-21T12:37:18.165Z,1004.87
2017-12-21T12:38:17.482Z,1004.81
2017-12-21T12:40:11.237Z,1004.87
2017-12-21T12:41:10.736Z,1004.84
2017-12-21T12:43:03.112Z,1004.87
2017-12-21T12:44:03.821Z,1004.87
2017-12-21T12:45:57.753Z,1004.80
2017-12-21T12:46:58.013Z,1004.80
2017-12-21T12:48:48.943Z,1004.74
2017-12-21T12:49:50.443Z,1004.73
2017-12-21T12:51:43.000Z,1004.76
2017-12-21T12:52:43.163Z,1004.76
2017-12-21T12:54:34.323Z,1004.79
2017-12-21T12:55:34.946Z,1004.77
2017-12-21T12:57:28.316Z,1004.78
2017-12-21T12:58:28.485Z,1004.73
2017-12-21T13:00:23.338Z,1004.76
2017-12-21T13:03:27.640Z,1004.75
2017-12-21T13:05:37.899Z,1004.79
2017-12-21T13:06:37.876Z,1004.78
2017-12-21T13:08:31.390Z,1004.78
2017-12-21T13:09:32.466Z,1004.80
2017-12-21T13:11:25.581Z,1004.77
2017-12-21T13:12:25.122Z,1004.75
2017-12-21T13:14:17.689Z,1004.75
2017-12-21T13:15:18.061Z,1004.70
2017-12-21T13:17:10.168Z,1004.64
2017-12-21T13:18:09.171Z,1004.66
2017-12-21T13:20:02.444Z,1004.61
2017-12-21T13:21:01.982Z,1004.59
2017-12-21T13:22:55.531Z,1004.65
2017-12-21T13:23:54.961Z,1004.59
2017-12-21T13:25:47.207Z,1004.67
2017-12-21T13:26:48.276Z,1004.69
2017-12-21T13:28:41.269Z,1004.73
2017-12-21T13:29:40.697Z,1004.74
2017-12-21T13:31:33.828Z,1004.78
2017-12-21T13:32:34.505Z,1004.80
2017-12-21T13:34:27.594Z,1004.82
2017-12-21T13:35:26.051Z,1004.80
2017-12-21T13:37:19.320Z,1004.79
2017-12-21T13:38:20.469Z,1004.83
2017-12-21T13:40:13.227Z,1004.77
2017-12-21T13:41:14.370Z,1004.78
2017-12-21T13:43:05.580Z,1004.83
2017-12-21T13:44:05.958Z,1004.78
2017-12-21T13:45:58.690Z,1004.71
2017-12-21T13:46:58.692Z,1004.81
2017-12-21T13:48:51.242Z,1004.80
2017-12-21T13:49:50.961Z,1004.78
2017-12-21T13:51:42.936Z,1004.75
2017-12-21T13:52:43.054Z,1004.78
2017-12-21T13:54:36.534Z,1004.83
2017-12-21T13:55:36.443Z,1004.72
2017-12-21T13:57:29.225Z,1004.77
2017-12-21T13:58:29.700Z,1004.81
2017-12-21T14:00:21.311Z,1004.77
2017-12-21T14:01:21.453Z,1004.80
2017-12-21T14:03:14.547Z,1004.78
2017-12-21T14:04:14.918Z,1004.78
2017-12-21T14:06:07.496Z,1004.78
2017-12-21T14:07:06.934Z,1004.83
2017-12-21T14:09:03.520Z,1004.90
2017-12-21T14:10:03.722Z,1004.92
2017-12-21T14:11:55.954Z,1004.99
2017-12-21T14:12:54.979Z,1004.99
2017-12-21T14:14:47.138Z,1005.03
2017-12-21T14:15:47.553Z,1005.06
2017-12-21T14:17:41.263Z,1005.07
2017-12-21T14:18:40.781Z,1005.05
2017-12-21T14:20:35.835Z,1005.08
2017-12-21T14:21:34.975Z,1005.13
2017-12-21T14:23:27.904Z,1005.15
2017-12-21T14:24:27.897Z,1005.12
2017-12-21T14:26:22.257Z,1005.23
2017-12-21T14:27:22.206Z,1005.20
2017-12-21T14:29:17.433Z,1005.15
2017-12-21T14:30:17.695Z,1005.20
2017-12-21T14:32:11.343Z,1005.18
2017-12-21T14:33:11.632Z,1005.22
2017-12-21T14:35:04.437Z,1005.24
2017-12-21T14:36:04.747Z,1005.22
2017-12-21T14:37:58.526Z,1005.29
2017-12-21T14:39:00.418Z,1005.24
2017-12-21T14:40:52.882Z,1005.28
2017-12-21T14:41:52.134Z,1005.23
2017-12-21T14:43:45.743Z,1005.23
2017-12-21T14:44:45.733Z,1005.24
2017-12-21T14:46:37.993Z,1005.34
2017-12-21T14:47:38.881Z,1005.33
2017-12-21T14:49:32.766Z,1005.34
2017-12-21T14:52:31.206Z,1005.31
2017-12-21T14:55:20.506Z,1005.39
2017-12-21T14:56:21.334Z,1005.38
2017-12-21T14:58:16.054Z,1005.35
2017-12-21T14:59:13.598Z,1005.35
2017-12-21T15:01:08.327Z,1005.40
2017-12-21T15:02:09.057Z,1005.39
2017-12-21T15:04:01.822Z,1005.37
2017-12-21T15:05:02.093Z,1005.36
2017-12-21T15:06:53.997Z,1005.41
2017-12-21T15:07:53.383Z,1005.35
2017-12-21T15:09:49.448Z,1005.32
2017-12-21T15:10:51.298Z,1005.33
2017-12-21T15:12:41.924Z,1005.26
2017-12-21T15:13:42.321Z,1005.26
2017-12-21T15:15:40.331Z,1005.27
2017-12-21T15:16:37.103Z,1005.37
2017-12-21T15:18:30.385Z,1005.39
2017-12-21T15:19:31.630Z,1005.40
2017-12-21T15:21:23.992Z,1005.44
2017-12-21T15:22:24.683Z,1005.48
2017-12-21T15:24:15.882Z,1005.47
2017-12-21T15:25:16.182Z,1005.51
2017-12-21T15:27:08.840Z,1005.61
2017-12-21T15:28:10.099Z,1005.64
2017-12-21T15:30:02.304Z,1005.68
2017-12-21T15:31:03.240Z,1005.69
2017-12-21T15:32:55.086Z,1005.74
2017-12-21T15:33:55.996Z,1005.77
2017-12-21T15:35:50.224Z,1005.80
2017-12-21T15:36:49.187Z,1005.80
2017-12-21T15:38:42.361Z,1005.77
2017-12-21T15:39:43.355Z,1005.76
2017-12-21T15:41:34.336Z,1005.73
2017-12-21T15:42:35.083Z,1005.72
2017-12-21T15:44:27.832Z,1005.79
2017-12-21T15:47:20.271Z,1005.83
2017-12-21T15:48:20.985Z,1005.83
2017-12-21T15:50:13.696Z,1005.82
2017-12-21T15:52:27.544Z,1005.86
2017-12-21T15:53:28.165Z,1005.83
2017-12-21T15:55:19.374Z,1005.85
2017-12-21T15:56:22.470Z,1005.89
2017-12-21T15:58:14.492Z,1005.79
2017-12-21T15:59:13.040Z,1005.74
2017-12-21T16:01:06.131Z,1005.66
2017-12-21T16:02:06.123Z,1005.68
2017-12-21T16:03:59.006Z,1005.66
2017-12-21T16:04:58.801Z,1005.69
2017-12-21T16:06:54.894Z,1005.68
2017-12-21T16:07:55.574Z,1005.72
2017-12-21T16:09:48.204Z,1005.70
2017-12-21T16:10:47.989Z,1005.68
2017-12-21T16:12:51.094Z,1005.65
2017-12-21T16:13:42.946Z,1005.70
2017-12-21T16:15:36.408Z,1005.76
2017-12-21T16:16:36.690Z,1005.82
2017-12-21T16:18:30.121Z,1005.91
2017-12-21T16:19:28.884Z,1006.00
2017-12-21T16:21:21.920Z,1006.01
2017-12-21T16:22:21.730Z,1006.05
2017-12-21T16:24:14.817Z,1006.13
2017-12-21T16:25:15.209Z,1006.16
2017-12-21T16:27:08.476Z,1006.15
2017-12-21T16:28:07.513Z,1006.13
2017-12-21T16:30:00.460Z,1006.20
2017-12-21T16:31:00.279Z,1006.19
2017-12-21T16:32:53.078Z,1006.24
2017-12-21T16:33:53.258Z,1006.25
2017-12-21T16:35:45.673Z,1006.26
2017-12-21T16:36:45.860Z,1006.25
2017-12-21T16:38:38.787Z,1006.38
2017-12-21T16:39:39.430Z,1006.39
2017-12-21T16:41:31.910Z,1006.36
2017-12-21T16:42:31.986Z,1006.33
2017-12-21T16:44:24.319Z,1006.29
2017-12-21T16:45:24.188Z,1006.24
2017-12-21T16:47:18.296Z,1006.23
2017-12-21T16:48:18.280Z,1006.27
2017-12-21T16:50:11.838Z,1006.34
2017-12-21T16:51:12.463Z,1006.36
2017-12-21T16:53:03.762Z,1006.29
2017-12-21T16:54:03.401Z,1006.24
2017-12-21T16:55:56.457Z,1006.16
2017-12-21T16:56:56.313Z,1006.26
2017-12-21T16:58:50.033Z,1006.29
2017-12-21T16:59:49.594Z,1006.35
2017-12-21T17:01:42.392Z,1006.33
2017-12-21T17:02:42.597Z,1006.36
2017-12-21T17:04:36.183Z,1006.36
2017-12-21T17:05:37.020Z,1006.38
2017-12-21T17:07:28.798Z,1006.41
2017-12-21T17:08:29.439Z,1006.45
2017-12-21T17:10:22.072Z,1006.49
2017-12-21T17:11:22.083Z,1006.52
2017-12-21T17:13:18.812Z,1006.52
2017-12-21T17:14:17.637Z,1006.59
2017-12-21T17:16:11.476Z,1006.63
2017-12-21T17:17:11.062Z,1006.63
2017-12-21T17:19:03.960Z,1006.57
2017-12-21T17:20:05.556Z,1006.54
2017-12-21T17:21:59.279Z,1006.60
2017-12-21T17:22:59.316Z,1006.63
2017-12-21T17:24:52.412Z,1006.62
2017-12-21T17:25:53.016Z,1006.61
2017-12-21T17:27:46.520Z,1006.64
2017-12-21T17:28:45.617Z,1006.66
2017-12-21T17:30:38.699Z,1006.64
2017-12-21T17:31:38.246Z,1006.59
2017-12-21T17:33:31.734Z,1006.61
2017-12-21T17:34:31.354Z,1006.62
2017-12-21T17:36:24.413Z,1006.68
2017-12-21T17:37:24.988Z,1006.70
2017-12-21T17:39:17.876Z,1006.77
2017-12-21T17:40:17.750Z,1006.77
2017-12-21T17:42:11.970Z,1006.85